Time;durP1;ratioP1;P1;durP2;ratioP2;P2;SDS_P1;SDS_P2;PMS_P1;PMS_P2;Temp;Humidity;BMP_temperature;BMP_pressure;BME280_temperature;BME280_humidity;BME280_pressure;Samples;Min_cycle;Max_cycle;Signal;HPM_P1;HPM_P2
2023/03/03 00:01:42;;;;;;;3.10;2.20;;;;;;;5.27;100.00;94479.13;5090599;28;20211;-53
2023/03/03 00:04:07;;;;;;;3.10;2.70;;;;;;;5.31;100.00;94505.72;5072533;28;20207;-53
2023/03/03 00:06:33;;;;;;;3.63;2.90;;;;;;;5.32;100.00;94527.47;5090519;28;20315;-54
2023/03/03 00:08:58;;;;;;;3.80;2.97;;;;;;;5.28;100.00;94508.44;5090400;28;20211;-54
2023/03/03 00:11:24;;;;;;;4.70;2.90;;;;;;;5.28;100.00;94483.22;5090597;28;20563;-54
2023/03/03 00:13:51;;;;;;;4.33;2.70;;;;;;;5.36;100.00;94501.97;5072581;28;20214;-54
2023/03/03 00:16:36;;;;;;;3.53;2.97;;;;;;;5.29;100.00;94490.72;5090716;28;20184;-53
2023/03/03 00:19:02;;;;;;;3.77;2.90;;;;;;;5.09;100.00;94484.47;5090540;28;20660;-54
2023/03/03 00:21:29;;;;;;;3.80;2.93;;;;;;;5.21;100.00;94477.00;5090410;28;20192;-54
2023/03/03 00:24:07;;;;;;;4.30;3.57;;;;;;;5.27;100.00;94484.16;5090293;28;20704;-56
2023/03/03 00:26:37;;;;;;;3.43;3.10;;;;;;;5.27;100.00;94489.19;5072303;28;20241;-55
2023/03/03 00:29:34;;;;;;;5.17;3.17;;;;;;;5.31;100.00;94495.66;5090627;28;20309;-54
2023/03/03 00:32:08;;;;;;;4.20;3.17;;;;;;;5.36;100.00;94499.47;5090556;28;20259;-53
2023/03/03 00:34:35;;;;;;;6.10;4.00;;;;;;;5.36;100.00;94493.59;5090343;28;20219;-53
2023/03/03 00:37:00;;;;;;;4.90;3.63;;;;;;;5.18;100.00;94484.75;5090090;28;20207;-54
2023/03/03 00:39:37;;;;;;;5.73;4.37;;;;;;;5.19;100.00;94468.75;5090375;28;20635;-59
2023/03/03 00:42:32;;;;;;;6.07;3.87;;;;;;;5.28;100.00;94490.78;5072073;28;20187;-59
2023/03/03 00:44:59;;;;;;;4.73;3.57;;;;;;;5.31;100.00;94485.56;5092217;28;20228;-57
2023/03/03 00:47:42;;;;;;;5.20;3.67;;;;;;;5.17;100.00;94452.94;5093483;28;20316;-54
2023/03/03 00:50:10;;;;;;;5.70;3.30;;;;;;;5.20;100.00;94470.34;5075373;28;20722;-53
2023/03/03 00:52:43;;;;;;;3.80;3.40;;;;;;;5.07;100.00;94448.50;5093481;28;20237;-57
2023/03/03 00:55:10;;;;;;;6.00;3.53;;;;;;;5.18;100.00;94459.56;5093337;28;20219;-54
2023/03/03 00:57:35;;;;;;;4.63;3.60;;;;;;;5.13;100.00;94454.03;5093259;28;20212;-53
2023/03/03 01:00:01;;;;;;;3.87;3.00;;;;;;;5.22;100.00;94456.75;5093402;28;20210;-53
2023/03/03 01:02:26;;;;;;;4.97;3.27;;;;;;;5.09;100.00;94429.03;5093197;28;20197;-56
2023/03/03 01:04:55;;;;;;;3.60;3.30;;;;;;;5.20;100.00;94450.19;5093539;28;20341;-53
2023/03/03 01:07:20;;;;;;;3.37;3.00;;;;;;;5.19;100.00;94441.84;5093224;28;20555;-55
2023/03/03 01:09:46;;;;;;;6.17;3.43;;;;;;;5.25;100.00;94464.13;5093204;28;20206;-58
2023/03/03 01:12:11;;;;;;;4.93;3.87;;;;;;;5.16;100.00;94446.25;5093092;28;20243;-54
2023/03/03 01:14:37;;;;;;;4.00;3.30;;;;;;;5.16;100.00;94429.44;5075190;28;20221;-56
2023/03/03 01:17:03;;;;;;;5.47;3.57;;;;;;;5.22;100.00;94451.69;5093127;28;20294;-55
2023/03/03 01:19:29;;;;;;;5.70;3.53;;;;;;;5.17;100.00;94450.41;5093268;28;20211;-58
2023/03/03 01:21:54;;;;;;;5.20;3.67;;;;;;;5.08;100.00;94439.22;5093106;28;20185;-55
2023/03/03 01:24:20;;;;;;;5.80;3.70;;;;;;;5.05;100.00;94435.19;5093149;28;20792;-58
2023/03/03 01:26:46;;;;;;;5.00;3.87;;;;;;;4.96;100.00;94419.91;5093013;28;20225;-54
2023/03/03 01:29:11;;;;;;;5.53;3.53;;;;;;;5.12;100.00;94428.03;5092991;28;20229;-53
2023/03/03 01:31:37;;;;;;;4.70;3.50;;;;;;;5.18;100.00;94389.84;5093037;28;20190;-53
2023/03/03 01:34:02;;;;;;;5.60;3.70;;;;;;;5.24;100.00;94418.84;5092998;28;20215;-53
2023/03/03 01:36:28;;;;;;;4.97;3.20;;;;;;;5.26;100.00;94443.03;5092792;28;20188;-54
2023/03/03 01:38:54;;;;;;;4.07;3.23;;;;;;;5.22;100.00;94395.47;5074686;28;20254;-55
2023/03/03 01:41:20;;;;;;;5.57;3.83;;;;;;;5.32;100.00;94441.81;5092591;28;20187;-54
2023/03/03 01:43:48;;;;;;;3.63;3.13;;;;;;;5.28;100.00;94437.88;5092850;28;20216;-59
2023/03/03 01:47:01;;;;;;;4.20;3.43;;;;;;;5.13;100.00;94413.72;5092490;28;20559;-54
2023/03/03 01:49:37;;;;;;;4.70;3.23;;;;;;;5.16;100.00;94437.00;5083342;28;20223;-54
2023/03/03 01:52:18;;;;;;;4.73;3.33;;;;;;;5.22;100.00;94425.69;5092523;28;20194;-54
2023/03/03 01:54:49;;;;;;;4.87;3.27;;;;;;;5.13;100.00;94417.84;5091605;28;20207;-54
2023/03/03 01:57:25;;;;;;;3.93;3.17;;;;;;;5.14;100.00;94428.75;5092199;28;20306;-53
2023/03/03 01:59:52;;;;;;;4.67;3.17;;;;;;;4.95;100.00;94371.22;5092943;28;20299;-53
2023/03/03 02:02:18;;;;;;;5.27;3.00;;;;;;;5.01;100.00;94392.69;5074088;28;20248;-52
2023/03/03 02:04:44;;;;;;;4.83;3.37;;;;;;;5.03;100.00;94414.34;5092128;28;20231;-53
2023/03/03 02:07:13;;;;;;;4.13;3.30;;;;;;;4.88;100.00;94407.81;5092128;28;20192;-57
2023/03/03 02:09:58;;;;;;;4.40;3.07;;;;;;;4.93;100.00;94403.28;5092273;28;20211;-56
2023/03/03 02:12:34;;;;;;;4.60;3.53;;;;;;;4.94;100.00;94384.75;5092152;28;20564;-58
2023/03/03 02:15:00;;;;;;;4.03;3.40;;;;;;;4.93;100.00;94393.19;5092150;28;20731;-54
2023/03/03 02:17:25;;;;;;;5.13;3.47;;;;;;;4.85;100.00;94402.16;5090897;28;20265;-58
2023/03/03 02:20:08;;;;;;;5.47;3.53;;;;;;;4.98;100.00;94411.34;5091364;28;20318;-58
2023/03/03 02:22:40;;;;;;;4.33;3.67;;;;;;;5.01;100.00;94426.22;5092317;28;20199;-56
2023/03/03 02:25:10;;;;;;;6.00;3.70;;;;;;;5.02;100.00;94412.75;5073757;28;20219;-56
2023/03/03 02:27:36;;;;;;;5.93;4.00;;;;;;;4.89;100.00;94403.56;5092064;28;20202;-56
2023/03/03 02:30:20;;;;;;;5.13;3.70;;;;;;;4.99;100.00;94399.53;5092038;28;20307;-54
2023/03/03 02:32:45;;;;;;;5.63;3.80;;;;;;;5.11;100.00;94424.72;5091792;28;20227;-56
2023/03/03 02:35:33;;;;;;;4.10;3.50;;;;;;;5.10;100.00;94418.06;5091694;28;20238;-55
2023/03/03 02:38:31;;;;;;;5.00;4.13;;;;;;;5.09;100.00;94429.03;5073324;28;20220;-56
2023/03/03 02:41:23;;;;;;;5.03;3.70;;;;;;;5.15;100.00;94442.97;5087646;28;20203;-57
2023/03/03 02:44:15;;;;;;;5.43;4.00;;;;;;;5.08;100.00;94429.16;5073589;28;20216;-57
2023/03/03 02:46:47;;;;;;;6.33;4.10;;;;;;;5.09;100.00;94415.63;5091106;28;20207;-54
2023/03/03 02:49:15;;;;;;;6.43;5.20;;;;;;;5.07;100.00;94410.72;5091823;28;20254;-54
2023/03/03 02:51:41;;;;;;;7.83;4.40;;;;;;;5.08;100.00;94386.31;5091500;28;20187;-54
2023/03/03 02:54:07;;;;;;;6.90;4.10;;;;;;;5.11;100.00;94416.34;5091492;28;20701;-54
2023/03/03 02:56:33;;;;;;;5.40;4.57;;;;;;;5.21;100.00;94436.69;5091415;28;20192;-54
2023/03/03 02:58:59;;;;;;;6.50;4.90;;;;;;;5.13;100.00;94433.88;5091393;28;20227;-55
2023/03/03 03:01:24;;;;;;;6.07;4.60;;;;;;;5.06;100.00;94421.72;5091524;28;20182;-57
2023/03/03 03:03:50;;;;;;;6.43;4.33;;;;;;;5.17;100.00;94430.25;5091619;28;20244;-57
2023/03/03 03:06:15;;;;;;;8.07;4.67;;;;;;;4.92;100.00;94416.78;5073082;28;20211;-57
2023/03/03 03:08:41;;;;;;;5.43;4.23;;;;;;;5.02;100.00;94404.38;5091541;28;20207;-53
2023/03/03 03:11:06;;;;;;;6.30;4.73;;;;;;;4.82;100.00;94370.47;5091360;28;20183;-54
2023/03/03 03:13:32;;;;;;;5.93;4.60;;;;;;;4.98;100.00;94408.81;5091313;28;20195;-54
2023/03/03 03:15:59;;;;;;;7.77;5.03;;;;;;;4.90;100.00;94383.34;5091215;28;20188;-53
2023/03/03 03:18:25;;;;;;;7.27;4.83;;;;;;;5.07;100.00;94404.84;5091055;28;20291;-53
2023/03/03 03:20:51;;;;;;;7.50;5.00;;;;;;;4.98;100.00;94418.91;5091173;28;20206;-58
2023/03/03 03:23:17;;;;;;;5.87;4.70;;;;;;;4.78;100.00;94370.75;5091001;28;20680;-57
2023/03/03 03:25:45;;;;;;;6.97;4.97;;;;;;;5.10;100.00;94404.66;5091064;28;20211;-57
2023/03/03 03:28:12;;;;;;;6.67;4.73;;;;;;;5.05;100.00;94397.41;5090879;28;20243;-57
2023/03/03 03:30:38;;;;;;;7.47;5.40;;;;;;;5.00;100.00;94391.09;5090893;28;20215;-57
2023/03/03 03:33:04;;;;;;;7.23;4.93;;;;;;;5.00;100.00;94391.91;5090930;28;20196;-55
2023/03/03 03:35:30;;;;;;;8.07;5.30;;;;;;;4.99;100.00;94389.44;5090971;28;20208;-54
2023/03/03 03:37:56;;;;;;;8.57;5.57;;;;;;;5.11;100.00;94397.00;5090943;28;20294;-55
2023/03/03 03:40:28;;;;;;;6.97;5.40;;;;;;;5.07;100.00;94392.25;5090801;28;20311;-55
2023/03/03 03:43:00;;;;;;;5.90;4.60;;;;;;;5.22;100.00;94395.47;5090959;28;20192;-59
2023/03/03 03:45:26;;;;;;;8.47;5.10;;;;;;;5.10;100.00;94382.81;5090661;28;20730;-54
2023/03/03 03:47:51;;;;;;;9.27;4.93;;;;;;;5.02;100.00;94374.97;5091008;28;20179;-56
2023/03/03 03:50:16;;;;;;;7.87;5.57;;;;;;;5.05;100.00;94366.38;5090675;28;20708;-54
2023/03/03 03:52:42;;;;;;;7.70;5.90;;;;;;;4.95;100.00;94363.69;5090667;28;20685;-55
2023/03/03 03:55:08;;;;;;;8.80;5.87;;;;;;;4.98;100.00;94360.16;5090684;28;20212;-58
2023/03/03 03:57:33;;;;;;;7.60;5.20;;;;;;;5.09;100.00;94373.63;5090711;28;20595;-55
2023/03/03 03:59:59;;;;;;;8.60;5.93;;;;;;;5.03;100.00;94363.97;5090752;28;20217;-54
2023/03/03 04:02:24;;;;;;;8.90;5.70;;;;;;;5.00;100.00;94373.44;5090742;28;20222;-56
2023/03/03 04:04:50;;;;;;;11.83;6.17;;;;;;;5.10;100.00;94362.66;5090747;28;20720;-57
2023/03/03 04:07:15;;;;;;;6.93;5.80;;;;;;;4.97;100.00;94348.47;5091234;28;20275;-59
2023/03/03 04:09:40;;;;;;;7.50;5.03;;;;;;;5.28;100.00;94367.31;5090610;28;20250;-56
2023/03/03 04:12:06;;;;;;;7.43;5.20;;;;;;;5.16;100.00;94361.41;5090597;28;20199;-54
2023/03/03 04:14:31;;;;;;;10.43;5.70;;;;;;;5.13;100.00;94356.56;5090741;28;20218;-55
2023/03/03 04:16:57;;;;;;;8.57;5.83;;;;;;;5.12;100.00;94365.06;5090247;28;20214;-57
2023/03/03 04:19:23;;;;;;;8.50;6.00;;;;;;;5.07;100.00;94367.06;5093161;28;20242;-57
2023/03/03 04:21:48;;;;;;;8.20;5.33;;;;;;;5.09;100.00;94363.53;5094123;28;20187;-58
2023/03/03 04:24:14;;;;;;;11.63;6.27;;;;;;;5.09;100.00;94368.59;5093697;28;20568;-56
2023/03/03 04:26:39;;;;;;;11.73;6.90;;;;;;;5.13;100.00;94372.50;5093747;28;20257;-57
2023/03/03 04:29:05;;;;;;;10.70;7.17;;;;;;;5.11;100.00;94371.00;5093873;28;20222;-59
2023/03/03 04:31:31;;;;;;;11.03;6.50;;;;;;;5.15;100.00;94369.09;5093721;28;20186;-57
2023/03/03 04:33:57;;;;;;;10.87;6.00;;;;;;;5.14;100.00;94365.75;5075439;28;20292;-57
2023/03/03 04:36:23;;;;;;;11.13;6.67;;;;;;;5.23;100.00;94371.88;5093644;28;20674;-61
2023/03/03 04:38:48;;;;;;;11.33;6.97;;;;;;;5.11;100.00;94363.44;5093642;28;20653;-58
2023/03/03 04:41:15;;;;;;;8.30;6.17;;;;;;;5.20;100.00;94377.13;5093591;28;20186;-58
2023/03/03 04:43:40;;;;;;;11.50;7.33;;;;;;;5.27;100.00;94374.09;5075457;28;20228;-58
2023/03/03 04:46:06;;;;;;;11.47;6.60;;;;;;;5.13;100.00;94370.00;5093749;28;20275;-54
2023/03/03 04:48:31;;;;;;;11.90;6.83;;;;;;;5.16;100.00;94365.66;5093375;28;20249;-58
2023/03/03 04:50:57;;;;;;;10.87;6.93;;;;;;;5.19;100.00;94373.00;5093441;28;20575;-56
2023/03/03 04:53:22;;;;;;;11.13;6.87;;;;;;;5.25;100.00;94365.84;5093651;28;20268;-53
2023/03/03 04:55:52;;;;;;;14.23;8.00;;;;;;;5.26;100.00;94369.16;5093271;28;20215;-55
2023/03/03 04:58:18;;;;;;;13.67;7.07;;;;;;;5.41;100.00;94378.19;5075173;28;20228;-54
2023/03/03 05:00:45;;;;;;;10.30;6.73;;;;;;;5.32;100.00;94384.66;5093351;28;20708;-54
2023/03/03 05:03:11;;;;;;;13.13;6.73;;;;;;;5.28;100.00;94380.75;5093569;28;20249;-54
2023/03/03 05:05:37;;;;;;;12.10;7.00;;;;;;;5.19;100.00;94373.00;5093215;28;20231;-54
2023/03/03 05:08:02;;;;;;;11.53;6.90;;;;;;;5.31;100.00;94375.50;5093381;28;20227;-56
2023/03/03 05:10:28;;;;;;;10.43;6.83;;;;;;;5.35;100.00;94393.72;5093085;28;20764;-55
2023/03/03 05:12:54;;;;;;;11.93;6.57;;;;;;;5.25;100.00;94383.47;5093057;28;20237;-56
2023/03/03 05:15:19;;;;;;;9.23;6.47;;;;;;;5.28;100.00;94382.44;5092946;28;20600;-56
2023/03/03 05:17:45;;;;;;;11.47;6.63;;;;;;;5.21;100.00;94383.78;5092762;28;20698;-56
2023/03/03 05:20:12;;;;;;;9.27;6.70;;;;;;;5.34;100.00;94377.78;5093059;28;20634;-56
2023/03/03 05:22:37;;;;;;;11.77;7.57;;;;;;;5.32;100.00;94389.69;5092990;28;20283;-57
2023/03/03 05:25:04;;;;;;;13.23;8.63;;;;;;;5.23;100.00;94395.38;5092830;28;20228;-58
2023/03/03 05:27:29;;;;;;;12.00;7.20;;;;;;;5.18;100.00;94383.97;5092831;28;20187;-55
2023/03/03 05:29:54;;;;;;;12.87;8.20;;;;;;;5.17;100.00;94400.03;5091813;28;20268;-53
2023/03/03 05:32:20;;;;;;;12.53;8.43;;;;;;;5.13;100.00;94386.03;5092808;28;20187;-55
2023/03/03 05:34:46;;;;;;;12.63;7.70;;;;;;;5.25;100.00;94391.03;5092759;28;20298;-55
2023/03/03 05:37:12;;;;;;;16.63;8.83;;;;;;;5.30;100.00;94401.59;5092611;28;20287;-56
2023/03/03 05:39:37;;;;;;;12.60;7.70;;;;;;;5.31;100.00;94397.38;5092494;28;20772;-53
2023/03/03 05:42:03;;;;;;;13.90;8.93;;;;;;;5.20;100.00;94390.53;5092672;28;20186;-56
2023/03/03 05:44:28;;;;;;;15.67;8.93;;;;;;;5.13;100.00;94391.06;5092978;28;20211;-53
2023/03/03 05:46:56;;;;;;;13.97;8.73;;;;;;;5.22;100.00;94386.19;5092521;28;20210;-54
2023/03/03 05:49:22;;;;;;;13.47;7.90;;;;;;;5.32;100.00;94406.53;5092938;28;20221;-57
2023/03/03 05:51:47;;;;;;;15.27;8.80;;;;;;;5.27;100.00;94383.38;5074203;28;20191;-54
2023/03/03 05:54:12;;;;;;;13.93;8.70;;;;;;;5.34;100.00;94412.25;5092537;28;20220;-55
2023/03/03 05:56:38;;;;;;;15.93;9.70;;;;;;;5.32;100.00;94409.84;5092456;28;20190;-56
2023/03/03 05:59:03;;;;;;;16.70;8.43;;;;;;;5.38;100.00;94393.50;5092434;28;20296;-54
2023/03/03 06:01:29;;;;;;;13.07;7.27;;;;;;;5.45;100.00;94403.09;5092245;28;20180;-54
2023/03/03 06:03:54;;;;;;;13.23;8.13;;;;;;;5.48;100.00;94402.84;5092241;28;20242;-58
2023/03/03 06:06:20;;;;;;;15.37;8.97;;;;;;;5.63;100.00;94413.59;5092324;28;20184;-60
2023/03/03 06:08:45;;;;;;;25.47;9.00;;;;;;;5.69;100.00;94410.66;5092285;28;20291;-56
2023/03/03 06:11:11;;;;;;;12.97;8.17;;;;;;;5.93;100.00;94421.56;5092206;28;20187;-54
2023/03/03 06:13:37;;;;;;;12.43;7.47;;;;;;;6.06;100.00;94450.06;5092352;28;20191;-57
2023/03/03 06:16:03;;;;;;;10.40;7.37;;;;;;;6.01;100.00;94426.88;5074089;28;20679;-53
2023/03/03 06:18:28;;;;;;;16.90;7.70;;;;;;;6.09;100.00;94429.66;5092134;28;20299;-54
2023/03/03 06:20:54;;;;;;;18.43;10.67;;;;;;;8.28;100.00;94408.72;5091954;28;20214;-58
2023/03/03 06:23:21;;;;;;;13.13;7.80;;;;;;;9.14;100.00;94394.00;5092181;28;20188;-57
2023/03/03 06:25:47;;;;;;;10.73;7.37;;;;;;;8.06;100.00;94487.25;5091814;28;20211;-54
2023/03/03 06:28:13;;;;;;;9.97;6.97;;;;;;;7.57;100.00;94489.41;5092052;28;20556;-54
2023/03/03 06:30:39;;;;;;;12.27;6.80;;;;;;;7.31;100.00;94467.81;5091809;28;20204;-53
2023/03/03 06:33:04;;;;;;;10.93;7.40;;;;;;;7.04;100.00;94445.38;5091882;28;20192;-54
2023/03/03 06:35:30;;;;;;;12.13;7.50;;;;;;;6.86;100.00;94441.69;5091845;28;20204;-52
2023/03/03 06:37:55;;;;;;;12.57;7.43;;;;;;;6.53;100.00;94417.19;5091804;28;20246;-54
2023/03/03 06:40:21;;;;;;;10.40;6.40;;;;;;;6.22;100.00;94405.16;5091677;28;20211;-56
2023/03/03 06:42:47;;;;;;;13.37;7.50;;;;;;;6.14;100.00;94397.31;5091529;28;20584;-59
2023/03/03 06:45:12;;;;;;;10.43;6.33;;;;;;;6.12;100.00;94394.09;5091690;28;20226;-57
2023/03/03 06:47:38;;;;;;;13.10;6.13;;;;;;;6.08;100.00;94417.94;5091558;28;20624;-58
2023/03/03 06:50:04;;;;;;;12.57;7.07;;;;;;;5.98;100.00;94406.91;5091458;28;20611;-55
2023/03/03 06:52:29;;;;;;;12.03;7.47;;;;;;;5.99;100.00;94395.91;5091505;28;20224;-54
2023/03/03 06:54:58;;;;;;;11.80;6.00;;;;;;;5.84;100.00;94414.63;5091687;28;20630;-53
2023/03/03 06:57:29;;;;;;;14.27;6.60;;;;;;;5.89;100.00;94405.84;5091325;28;20204;-55
2023/03/03 07:00:19;;;;;;;8.13;5.53;;;;;;;6.09;100.00;94429.66;5091858;28;20218;-54
2023/03/03 07:02:45;;;;;;;10.23;6.33;;;;;;;6.20;100.00;94431.44;5091316;28;20193;-55
2023/03/03 07:05:15;;;;;;;8.77;5.90;;;;;;;6.22;100.00;94434.66;5091304;28;20210;-55
2023/03/03 07:07:40;;;;;;;9.10;5.60;;;;;;;6.15;100.00;94423.38;5091218;28;20216;-54
2023/03/03 07:10:23;;;;;;;8.83;5.63;;;;;;;6.39;100.00;94442.63;5091317;28;20211;-55
2023/03/03 07:12:49;;;;;;;10.50;6.57;;;;;;;6.20;100.00;94421.34;5091432;28;20248;-54
2023/03/03 07:15:14;;;;;;;9.57;6.13;;;;;;;6.43;100.00;94433.09;5091330;28;20697;-57
2023/03/03 07:17:44;;;;;;;8.47;5.57;;;;;;;6.24;100.00;94432.84;5091086;28;20234;-58
2023/03/03 07:20:24;;;;;;;7.33;5.43;;;;;;;6.26;100.00;94416.63;5090984;28;20268;-58
2023/03/03 07:22:50;;;;;;;10.43;6.07;;;;;;;6.38;100.00;94410.72;5090620;28;20324;-58
2023/03/03 07:25:26;;;;;;;8.83;6.40;;;;;;;6.55;100.00;94425.44;5091042;28;20208;-58
2023/03/03 07:27:55;;;;;;;11.57;8.80;;;;;;;6.57;100.00;94403.41;5091112;28;20627;-59
2023/03/03 07:30:27;;;;;;;7.70;5.83;;;;;;;6.68;100.00;94420.31;5090881;28;20204;-56
2023/03/03 07:32:57;;;;;;;7.93;5.20;;;;;;;6.40;100.00;94445.97;5090842;28;20185;-56
2023/03/03 07:35:41;;;;;;;8.63;5.20;;;;;;;6.36;100.00;94457.19;5091192;28;20208;-55
2023/03/03 07:38:13;;;;;;;8.33;5.87;;;;;;;6.34;100.00;94416.91;5091155;28;20219;-56
2023/03/03 07:40:45;;;;;;;8.93;5.73;;;;;;;6.39;100.00;94422.44;5090541;28;20708;-54
2023/03/03 07:43:30;;;;;;;8.13;5.07;;;;;;;6.46;100.00;94448.03;5072662;28;20199;-54
2023/03/03 07:46:14;;;;;;;11.07;5.47;;;;;;;6.57;100.00;94446.34;5090801;28;20217;-55
2023/03/03 07:48:43;;;;;;;6.43;5.10;;;;;;;6.45;100.00;94429.56;5090980;28;20325;-54
2023/03/03 07:51:42;;;;;;;8.37;5.80;;;;;;;6.69;100.00;94377.25;5090845;28;20195;-59
2023/03/03 07:54:27;;;;;;;7.13;5.03;;;;;;;7.14;100.00;94448.03;5089156;28;20311;-59
2023/03/03 07:56:55;;;;;;;10.27;6.17;;;;;;;7.06;100.00;94452.84;5094132;28;20191;-56
2023/03/03 07:59:23;;;;;;;8.67;5.47;;;;;;;7.01;100.00;94472.63;5094462;28;20222;-57
2023/03/03 08:01:56;;;;;;;13.40;5.87;;;;;;;6.93;100.00;94475.69;5094442;28;20239;-57
2023/03/03 08:04:38;;;;;;;7.37;4.90;;;;;;;6.78;100.00;94449.84;5076029;28;20627;-59
2023/03/03 08:07:13;;;;;;;7.63;5.63;;;;;;;6.68;100.00;94426.19;5094366;28;20184;-56
2023/03/03 08:10:00;;;;;;;9.27;6.57;;;;;;;6.75;100.00;94434.91;5094160;28;20747;-56
2023/03/03 08:12:43;;;;;;;11.73;6.57;;;;;;;6.62;100.00;94403.91;5075418;28;20195;-56
2023/03/03 08:15:24;;;;;;;10.30;6.43;;;;;;;6.69;100.00;94399.19;5094145;28;20251;-57
2023/03/03 08:17:52;;;;;;;9.47;6.07;;;;;;;6.75;100.00;94423.97;5093848;28;20297;-57
2023/03/03 08:21:05;;;;;;;11.80;6.77;;;;;;;6.59;100.00;94420.97;5094197;28;20216;-58
2023/03/03 08:23:30;;;;;;;12.20;7.07;;;;;;;6.51;100.00;94413.16;5058638;28;20196;-58
2023/03/03 08:25:56;;;;;;;10.67;6.47;;;;;;;6.51;100.00;94401.34;5075690;28;20195;-58
2023/03/03 08:28:22;;;;;;;10.00;6.10;;;;;;;6.57;100.00;94427.84;5094029;28;20188;-59
2023/03/03 08:30:48;;;;;;;10.03;6.13;;;;;;;6.52;100.00;94419.81;5093776;28;20643;-59
2023/03/03 08:33:14;;;;;;;10.83;6.87;;;;;;;6.51;100.00;94410.63;5093775;28;20219;-58
2023/03/03 08:35:40;;;;;;;10.93;6.97;;;;;;;6.44;100.00;94386.75;5095156;28;20268;-55
2023/03/03 08:38:07;;;;;;;13.00;7.27;;;;;;;6.45;100.00;94389.16;5099207;28;20215;-54
2023/03/03 08:40:33;;;;;;;9.33;6.57;;;;;;;6.54;100.00;94395.28;5104746;28;20681;-56
2023/03/03 08:42:59;;;;;;;11.60;7.30;;;;;;;6.58;100.00;94412.63;5095358;28;20195;-55
2023/03/03 08:45:25;;;;;;;11.57;7.47;;;;;;;6.51;100.00;94428.31;5112376;28;20211;-55
2023/03/03 08:47:50;;;;;;;12.13;7.67;;;;;;;6.48;100.00;94400.78;5113094;28;20285;-58
2023/03/03 08:50:17;;;;;;;10.20;6.57;;;;;;;6.56;100.00;94371.53;5095062;28;20594;-58
2023/03/03 08:52:43;;;;;;;11.93;6.70;;;;;;;6.64;100.00;94421.47;5113273;28;20197;-53
2023/03/03 08:55:09;;;;;;;9.47;6.23;;;;;;;6.64;100.00;94421.47;5113857;28;20784;-58
2023/03/03 08:57:35;;;;;;;9.03;5.47;;;;;;;6.66;100.00;94417.91;5113934;28;20215;-54
2023/03/03 09:00:00;;;;;;;8.97;5.60;;;;;;;6.65;100.00;94418.00;5095394;28;20681;-54
2023/03/03 09:02:26;;;;;;;9.13;6.07;;;;;;;6.67;100.00;94413.66;5112803;28;20572;-53
2023/03/03 09:04:51;;;;;;;10.27;6.37;;;;;;;6.63;100.00;94413.06;5113409;28;20207;-58
2023/03/03 09:07:17;;;;;;;9.27;6.80;;;;;;;6.76;100.00;94418.84;5114158;28;20655;-58
2023/03/03 09:09:42;;;;;;;8.57;5.53;;;;;;;6.88;100.00;94447.44;5114134;28;20716;-58
2023/03/03 09:12:18;;;;;;;8.27;5.53;;;;;;;6.55;100.00;94392.63;5113753;28;20179;-58
2023/03/03 09:14:45;;;;;;;8.37;5.23;;;;;;;6.76;100.00;94448.34;5113805;28;20700;-56
2023/03/03 09:17:33;;;;;;;8.17;5.50;;;;;;;6.77;100.00;94437.31;5113319;28;20207;-55
2023/03/03 09:20:10;;;;;;;8.57;6.00;;;;;;;6.92;100.00;94422.75;5095213;28;20227;-56
2023/03/03 09:22:36;;;;;;;10.67;6.10;;;;;;;7.01;100.00;94415.28;5113527;28;20220;-53
2023/03/03 09:25:21;;;;;;;9.77;5.77;;;;;;;7.21;100.00;94446.66;5113088;28;20218;-54
2023/03/03 09:27:46;;;;;;;8.10;5.43;;;;;;;7.21;100.00;94446.66;5113406;28;20264;-59
2023/03/03 09:30:36;;;;;;;8.83;5.57;;;;;;;7.23;100.00;94470.09;5113325;28;20211;-58
2023/03/03 09:33:16;;;;;;;7.33;5.43;;;;;;;7.34;100.00;94434.69;5113300;28;20249;-57
2023/03/03 09:35:41;;;;;;;8.30;5.10;;;;;;;7.34;100.00;94457.44;5113431;28;20200;-57
2023/03/03 09:38:18;;;;;;;7.33;5.10;;;;;;;7.45;100.00;94513.88;5095377;28;20288;-55
2023/03/03 09:40:52;;;;;;;8.43;5.43;;;;;;;7.37;100.00;94482.53;5113172;28;20215;-56
2023/03/03 09:43:27;;;;;;;6.27;4.83;;;;;;;7.29;100.00;94530.31;5113279;28;20222;-54
2023/03/03 09:46:11;;;;;;;10.77;5.80;;;;;;;7.22;100.00;94512.28;5113047;28;20195;-55
2023/03/03 09:48:49;;;;;;;7.20;5.23;;;;;;;6.95;100.00;94476.38;5113084;28;20192;-55
2023/03/03 09:51:30;;;;;;;10.50;5.63;;;;;;;7.53;100.00;94501.47;5113169;28;20179;-54
2023/03/03 09:54:27;;;;;;;7.00;5.13;;;;;;;7.52;100.00;94512.50;5113144;28;20217;-56
2023/03/03 09:57:02;;;;;;;8.03;5.17;;;;;;;7.59;100.00;94525.50;5041606;28;20204;-54
2023/03/03 09:59:31;;;;;;;6.20;5.20;;;;;;;7.65;100.00;94540.22;5113175;28;20222;-55
2023/03/03 10:02:15;;;;;;;8.73;6.13;;;;;;;7.57;100.00;94495.25;5112930;28;20188;-55
2023/03/03 10:04:48;;;;;;;7.93;5.57;;;;;;;7.57;100.00;94471.72;5112518;28;20226;-55
2023/03/03 10:07:42;;;;;;;7.57;5.40;;;;;;;7.59;100.00;94501.00;5094530;28;20656;-58
2023/03/03 10:10:44;;;;;;;7.60;4.83;;;;;;;7.70;100.00;94474.91;5112755;28;20211;-54
2023/03/03 10:13:41;;;;;;;6.90;4.97;;;;;;;7.84;100.00;94520.19;5112790;28;20191;-59
2023/03/03 10:16:17;;;;;;;8.30;5.30;;;;;;;7.59;100.00;94498.47;5112070;28;20195;-55
2023/03/03 10:19:02;;;;;;;10.13;6.70;;;;;;;7.54;100.00;94446.63;5112583;28;20222;-54
2023/03/03 10:21:36;;;;;;;12.47;6.87;;;;;;;7.47;100.00;94463.22;5112555;28;20218;-56
2023/03/03 10:24:19;;;;;;;11.77;7.17;;;;;;;6.87;100.00;94424.81;5112679;28;20242;-57
2023/03/03 10:26:51;;;;;;;10.27;6.60;;;;;;;6.82;100.00;94407.47;5112499;28;20667;-57
2023/03/03 10:29:45;;;;;;;9.90;7.10;;;;;;;7.06;100.00;94455.38;5112519;28;20632;-56
2023/03/03 10:32:31;;;;;;;8.93;6.53;;;;;;;7.23;100.00;94447.34;5087181;28;20203;-53
2023/03/03 10:35:13;;;;;;;10.13;6.20;;;;;;;7.33;100.00;94474.34;5112235;28;20219;-55
2023/03/03 10:37:53;;;;;;;11.40;7.07;;;;;;;7.27;100.00;94452.03;5112237;28;20317;-55
2023/03/03 10:40:37;;;;;;;10.17;6.90;;;;;;;6.92;100.00;94421.03;5112114;28;20261;-55
2023/03/03 10:43:13;;;;;;;10.43;6.77;;;;;;;7.01;100.00;94419.56;5093742;28;20222;-56
2023/03/03 10:45:53;;;;;;;10.03;7.23;;;;;;;7.05;100.00;94431.03;5112076;28;20234;-58
2023/03/03 10:48:39;;;;;;;10.83;6.97;;;;;;;7.05;100.00;94426.75;5112362;28;20211;-55
2023/03/03 10:51:19;;;;;;;9.27;7.07;;;;;;;7.21;100.00;94421.38;5112297;28;20191;-58
2023/03/03 10:54:03;;;;;;;9.00;6.40;;;;;;;7.04;100.00;94425.19;5112262;28;20210;-58
2023/03/03 10:56:46;;;;;;;10.30;6.40;;;;;;;7.26;100.00;94426.88;5112102;28;20282;-55
2023/03/03 10:59:24;;;;;;;12.70;7.63;;;;;;;6.88;100.00;94378.41;5112113;28;20219;-55
2023/03/03 11:01:55;;;;;;;16.83;9.00;;;;;;;6.75;100.00;94343.16;5111720;28;20266;-54
2023/03/03 11:04:51;;;;;;;11.60;7.77;;;;;;;6.81;100.00;94341.91;5111572;28;20239;-55
2023/03/03 11:07:25;;;;;;;10.40;7.40;;;;;;;6.66;100.00;94359.81;5111726;28;20183;-58
2023/03/03 11:10:17;;;;;;;10.23;7.57;;;;;;;7.05;100.00;94375.44;5111801;28;20754;-58
2023/03/03 11:12:56;;;;;;;11.43;7.60;;;;;;;7.15;100.00;94396.56;5111590;28;20657;-54
2023/03/03 11:15:21;;;;;;;11.17;7.90;;;;;;;7.39;100.00;94392.97;5110507;28;20203;-57
2023/03/03 11:18:14;;;;;;;9.63;7.03;;;;;;;7.56;100.00;94371.44;5101838;28;20245;-58
2023/03/03 11:21:06;;;;;;;11.70;8.10;;;;;;;7.39;100.00;94435.16;5111638;28;20203;-58
2023/03/03 11:24:26;;;;;;;9.17;6.83;;;;;;;7.53;100.00;94402.03;5111770;28;20210;-57
2023/03/03 11:27:06;;;;;;;10.33;7.23;;;;;;;7.51;100.00;94422.38;5048443;28;20190;-58
2023/03/03 11:30:01;;;;;;;10.77;7.80;;;;;;;7.07;100.00;94381.19;5085965;28;20218;-58
2023/03/03 11:32:38;;;;;;;12.50;8.87;;;;;;;6.92;100.00;94373.03;5111413;28;20179;-57
2023/03/03 11:35:22;;;;;;;12.83;9.27;;;;;;;6.92;100.00;94360.41;5111453;28;20199;-58
2023/03/03 11:38:06;;;;;;;15.63;9.60;;;;;;;6.70;100.00;94341.00;5111047;28;20211;-57
2023/03/03 11:40:54;;;;;;;13.17;9.43;;;;;;;6.63;100.00;94312.06;5111025;28;20215;-54
2023/03/03 11:43:48;;;;;;;13.70;8.77;;;;;;;6.40;100.00;94286.94;5111367;28;20406;-54
2023/03/03 11:46:33;;;;;;;14.00;9.30;;;;;;;6.71;100.00;94297.13;5092599;28;20578;-54
2023/03/03 11:49:46;;;;;;;11.97;9.10;;;;;;;6.77;100.00;94311.00;5111300;28;20260;-57
2023/03/03 11:52:30;;;;;;;12.23;9.13;;;;;;;6.79;100.00;94304.13;5074205;28;20260;-54